sensor_id;sensor_type;location;lat;lon;timestamp;P1;durP1;ratioP1;P2;durP2;ratioP2
64712;SDS011;51140;45.340;5.980;2024-03-17T00:01:38;8.73;;;1.40;;
64712;SDS011;51140;45.340;5.980;2024-03-17T00:04:06;8.45;;;1.25;;
64712;SDS011;51140;45.340;5.980;2024-03-17T00:06:31;6.80;;;1.40;;
64712;SDS011;51140;45.340;5.980;2024-03-17T00:08:57;4.97;;;1.00;;
64712;SDS011;51140;45.340;5.980;2024-03-17T00:11:22;4.50;;;1.13;;
64712;SDS011;51140;45.340;5.980;2024-03-17T00:13:48;6.00;;;1.30;;
64712;SDS011;51140;45.340;5.980;2024-03-17T00:16:13;5.90;;;1.10;;
64712;SDS011;51140;45.340;5.980;2024-03-17T00:18:39;6.60;;;1.50;;
64712;SDS011;51140;45.340;5.980;2024-03-17T00:21:05;7.43;;;1.27;;
64712;SDS011;51140;45.340;5.980;2024-03-17T00:23:31;7.57;;;1.30;;
64712;SDS011;51140;45.340;5.980;2024-03-17T00:25:56;7.30;;;1.30;;
64712;SDS011;51140;45.340;5.980;2024-03-17T00:28:22;5.70;;;1.33;;
64712;SDS011;51140;45.340;5.980;2024-03-17T00:30:47;6.60;;;1.50;;
64712;SDS011;51140;45.340;5.980;2024-03-17T00:33:12;2.78;;;0.82;;
64712;SDS011;51140;45.340;5.980;2024-03-17T00:35:39;7.13;;;1.35;;
64712;SDS011;51140;45.340;5.980;2024-03-17T00:38:04;6.10;;;1.23;;
64712;SDS011;51140;45.340;5.980;2024-03-17T00:40:35;6.15;;;1.50;;
64712;SDS011;51140;45.340;5.980;2024-03-17T00:43:03;8.20;;;1.45;;
64712;SDS011;51140;45.340;5.980;2024-03-17T00:45:29;9.65;;;3.28;;
64712;SDS011;51140;45.340;5.980;2024-03-17T00:47:54;5.70;;;1.70;;
64712;SDS011;51140;45.340;5.980;2024-03-17T00:50:19;6.45;;;1.70;;
64712;SDS011;51140;45.340;5.980;2024-03-17T00:52:45;4.35;;;1.05;;
64712;SDS011;51140;45.340;5.980;2024-03-17T00:55:10;5.53;;;1.20;;
64712;SDS011;51140;45.340;5.980;2024-03-17T00:57:36;5.32;;;1.30;;
64712;SDS011;51140;45.340;5.980;2024-03-17T01:00:02;9.10;;;1.67;;
64712;SDS011;51140;45.340;5.980;2024-03-17T01:02:31;8.73;;;2.50;;
64712;SDS011;51140;45.340;5.980;2024-03-17T01:04:56;10.13;;;1.88;;
64712;SDS011;51140;45.340;5.980;2024-03-17T01:07:22;8.27;;;2.53;;
64712;SDS011;51140;45.340;5.980;2024-03-17T01:09:47;8.13;;;2.38;;
64712;SDS011;51140;45.340;5.980;2024-03-17T01:12:13;6.22;;;1.75;;
64712;SDS011;51140;45.340;5.980;2024-03-17T01:14:39;5.03;;;1.23;;
64712;SDS011;51140;45.340;5.980;2024-03-17T01:17:04;5.32;;;1.40;;
64712;SDS011;51140;45.340;5.980;2024-03-17T01:19:30;6.28;;;1.35;;
64712;SDS011;51140;45.340;5.980;2024-03-17T01:21:56;5.55;;;1.40;;
64712;SDS011;51140;45.340;5.980;2024-03-17T01:24:21;5.65;;;1.40;;
64712;SDS011;51140;45.340;5.980;2024-03-17T01:26:47;9.35;;;1.60;;
64712;SDS011;51140;45.340;5.980;2024-03-17T01:29:12;5.50;;;1.20;;
64712;SDS011;51140;45.340;5.980;2024-03-17T01:31:38;7.45;;;1.60;;
64712;SDS011;51140;45.340;5.980;2024-03-17T01:34:04;4.00;;;1.30;;
64712;SDS011;51140;45.340;5.980;2024-03-17T01:36:29;6.07;;;1.40;;
64712;SDS011;51140;45.340;5.980;2024-03-17T01:38:55;4.47;;;1.40;;
64712;SDS011;51140;45.340;5.980;2024-03-17T01:41:20;6.22;;;1.50;;
64712;SDS011;51140;45.340;5.980;2024-03-17T01:43:46;6.00;;;1.70;;
64712;SDS011;51140;45.340;5.980;2024-03-17T01:46:12;6.50;;;1.55;;
64712;SDS011;51140;45.340;5.980;2024-03-17T01:48:39;5.20;;;1.40;;
64712;SDS011;51140;45.340;5.980;2024-03-17T01:51:05;6.45;;;1.40;;
64712;SDS011;51140;45.340;5.980;2024-03-17T01:53:32;4.63;;;1.42;;
64712;SDS011;51140;45.340;5.980;2024-03-17T01:55:57;6.28;;;1.30;;
64712;SDS011;51140;45.340;5.980;2024-03-17T01:58:24;6.25;;;1.20;;
64712;SDS011;51140;45.340;5.980;2024-03-17T02:00:50;4.65;;;1.00;;
64712;SDS011;51140;45.340;5.980;2024-03-17T02:03:17;5.32;;;1.42;;
64712;SDS011;51140;45.340;5.980;2024-03-17T02:05:42;7.95;;;1.65;;
64712;SDS011;51140;45.340;5.980;2024-03-17T02:08:09;5.35;;;1.65;;
64712;SDS011;51140;45.340;5.980;2024-03-17T02:10:36;7.78;;;2.50;;
64712;SDS011;51140;45.340;5.980;2024-03-17T02:13:02;4.30;;;1.48;;
64712;SDS011;51140;45.340;5.980;2024-03-17T02:15:28;6.97;;;1.85;;
64712;SDS011;51140;45.340;5.980;2024-03-17T02:17:54;4.18;;;1.25;;
64712;SDS011;51140;45.340;5.980;2024-03-17T02:20:20;5.07;;;1.15;;
64712;SDS011;51140;45.340;5.980;2024-03-17T02:22:49;5.25;;;1.23;;
64712;SDS011;51140;45.340;5.980;2024-03-17T02:25:15;6.97;;;1.45;;
64712;SDS011;51140;45.340;5.980;2024-03-17T02:27:40;6.70;;;1.55;;
64712;SDS011;51140;45.340;5.980;2024-03-17T02:30:06;3.45;;;1.20;;
64712;SDS011;51140;45.340;5.980;2024-03-17T02:32:37;5.75;;;1.30;;
64712;SDS011;51140;45.340;5.980;2024-03-17T02:35:03;8.57;;;1.60;;
64712;SDS011;51140;45.340;5.980;2024-03-17T02:37:30;5.70;;;1.23;;
64712;SDS011;51140;45.340;5.980;2024-03-17T02:39:55;3.83;;;1.10;;
64712;SDS011;51140;45.340;5.980;2024-03-17T02:42:20;4.50;;;1.10;;
64712;SDS011;51140;45.340;5.980;2024-03-17T02:44:46;5.70;;;1.20;;
64712;SDS011;51140;45.340;5.980;2024-03-17T02:47:11;6.10;;;1.10;;
64712;SDS011;51140;45.340;5.980;2024-03-17T02:49:39;8.82;;;1.40;;
64712;SDS011;51140;45.340;5.980;2024-03-17T02:52:08;4.93;;;1.10;;
64712;SDS011;51140;45.340;5.980;2024-03-17T02:54:35;8.10;;;1.38;;
64712;SDS011;51140;45.340;5.980;2024-03-17T02:57:05;8.85;;;1.40;;
64712;SDS011;51140;45.340;5.980;2024-03-17T02:59:31;5.68;;;1.40;;
64712;SDS011;51140;45.340;5.980;2024-03-17T03:01:57;6.13;;;1.35;;
64712;SDS011;51140;45.340;5.980;2024-03-17T03:04:24;4.28;;;1.33;;
64712;SDS011;51140;45.340;5.980;2024-03-17T03:06:50;6.60;;;1.52;;
64712;SDS011;51140;45.340;5.980;2024-03-17T03:09:15;4.95;;;1.30;;
64712;SDS011;51140;45.340;5.980;2024-03-17T03:11:46;4.65;;;1.33;;
64712;SDS011;51140;45.340;5.980;2024-03-17T03:14:12;4.13;;;1.25;;
64712;SDS011;51140;45.340;5.980;2024-03-17T03:16:38;5.43;;;1.25;;
64712;SDS011;51140;45.340;5.980;2024-03-17T03:19:03;4.78;;;1.15;;
64712;SDS011;51140;45.340;5.980;2024-03-17T03:21:30;6.85;;;1.20;;
64712;SDS011;51140;45.340;5.980;2024-03-17T03:23:56;6.25;;;1.35;;
64712;SDS011;51140;45.340;5.980;2024-03-17T03:26:21;5.65;;;1.30;;
64712;SDS011;51140;45.340;5.980;2024-03-17T03:28:46;5.57;;;1.27;;
64712;SDS011;51140;45.340;5.980;2024-03-17T03:31:12;4.85;;;1.27;;
64712;SDS011;51140;45.340;5.980;2024-03-17T03:33:42;4.68;;;1.50;;
64712;SDS011;51140;45.340;5.980;2024-03-17T03:36:09;5.50;;;1.30;;
64712;SDS011;51140;45.340;5.980;2024-03-17T03:38:36;6.65;;;1.90;;
64712;SDS011;51140;45.340;5.980;2024-03-17T03:41:11;4.75;;;1.45;;
64712;SDS011;51140;45.340;5.980;2024-03-17T03:43:39;6.85;;;1.33;;
64712;SDS011;51140;45.340;5.980;2024-03-17T03:46:05;5.00;;;1.60;;
64712;SDS011;51140;45.340;5.980;2024-03-17T03:48:31;10.20;;;4.20;;
64712;SDS011;51140;45.340;5.980;2024-03-17T03:50:57;5.93;;;2.17;;
64712;SDS011;51140;45.340;5.980;2024-03-17T03:53:23;6.75;;;1.80;;
64712;SDS011;51140;45.340;5.980;2024-03-17T03:55:49;6.93;;;1.80;;
64712;SDS011;51140;45.340;5.980;2024-03-17T03:58:14;6.47;;;1.70;;
64712;SDS011;51140;45.340;5.980;2024-03-17T04:00:40;5.50;;;1.65;;
64712;SDS011;51140;45.340;5.980;2024-03-17T04:03:06;4.85;;;1.45;;
64712;SDS011;51140;45.340;5.980;2024-03-17T04:05:32;6.90;;;1.52;;
64712;SDS011;51140;45.340;5.980;2024-03-17T04:07:59;5.53;;;1.10;;
64712;SDS011;51140;45.340;5.980;2024-03-17T04:10:25;6.35;;;1.83;;
64712;SDS011;51140;45.340;5.980;2024-03-17T04:12:51;6.25;;;1.48;;
64712;SDS011;51140;45.340;5.980;2024-03-17T04:15:17;3.88;;;1.17;;
64712;SDS011;51140;45.340;5.980;2024-03-17T04:17:43;6.22;;;1.50;;
64712;SDS011;51140;45.340;5.980;2024-03-17T04:20:08;5.03;;;1.48;;
64712;SDS011;51140;45.340;5.980;2024-03-17T04:22:35;7.82;;;1.77;;
64712;SDS011;51140;45.340;5.980;2024-03-17T04:25:01;6.35;;;1.65;;
64712;SDS011;51140;45.340;5.980;2024-03-17T04:27:28;4.32;;;1.20;;
64712;SDS011;51140;45.340;5.980;2024-03-17T04:29:54;5.35;;;1.50;;
64712;SDS011;51140;45.340;5.980;2024-03-17T04:32:22;6.07;;;1.50;;
64712;SDS011;51140;45.340;5.980;2024-03-17T04:34:47;3.72;;;1.40;;
64712;SDS011;51140;45.340;5.980;2024-03-17T04:37:13;6.40;;;1.60;;
64712;SDS011;51140;45.340;5.980;2024-03-17T04:39:39;7.45;;;1.50;;
64712;SDS011;51140;45.340;5.980;2024-03-17T04:42:08;3.70;;;1.30;;
64712;SDS011;51140;45.340;5.980;2024-03-17T04:44:34;6.30;;;1.60;;
64712;SDS011;51140;45.340;5.980;2024-03-17T04:47:00;7.03;;;2.10;;
64712;SDS011;51140;45.340;5.980;2024-03-17T04:49:25;5.25;;;1.90;;
64712;SDS011;51140;45.340;5.980;2024-03-17T04:51:51;6.03;;;1.80;;
64712;SDS011;51140;45.340;5.980;2024-03-17T04:54:16;5.95;;;1.73;;
64712;SDS011;51140;45.340;5.980;2024-03-17T04:56:41;6.03;;;1.73;;
64712;SDS011;51140;45.340;5.980;2024-03-17T04:59:07;6.60;;;1.80;;
64712;SDS011;51140;45.340;5.980;2024-03-17T05:01:32;6.90;;;1.90;;
64712;SDS011;51140;45.340;5.980;2024-03-17T05:04:02;5.93;;;1.63;;
64712;SDS011;51140;45.340;5.980;2024-03-17T05:06:28;4.88;;;1.33;;
64712;SDS011;51140;45.340;5.980;2024-03-17T05:08:53;5.65;;;1.40;;
64712;SDS011;51140;45.340;5.980;2024-03-17T05:11:19;4.38;;;1.35;;
64712;SDS011;51140;45.340;5.980;2024-03-17T05:13:44;6.55;;;1.60;;
64712;SDS011;51140;45.340;5.980;2024-03-17T05:16:10;5.78;;;1.33;;
64712;SDS011;51140;45.340;5.980;2024-03-17T05:18:36;6.03;;;1.52;;
64712;SDS011;51140;45.340;5.980;2024-03-17T05:21:04;4.45;;;1.33;;
64712;SDS011;51140;45.340;5.980;2024-03-17T05:23:31;5.85;;;1.35;;
64712;SDS011;51140;45.340;5.980;2024-03-17T05:25:58;6.75;;;1.35;;
64712;SDS011;51140;45.340;5.980;2024-03-17T05:28:24;4.50;;;1.30;;
64712;SDS011;51140;45.340;5.980;2024-03-17T05:30:51;5.78;;;1.40;;
64712;SDS011;51140;45.340;5.980;2024-03-17T05:33:17;7.97;;;2.47;;
64712;SDS011;51140;45.340;5.980;2024-03-17T05:35:52;8.57;;;3.95;;
64712;SDS011;51140;45.340;5.980;2024-03-17T05:38:20;8.93;;;4.50;;
64712;SDS011;51140;45.340;5.980;2024-03-17T05:41:07;10.07;;;4.75;;
64712;SDS011;51140;45.340;5.980;2024-03-17T05:43:34;9.90;;;4.55;;
64712;SDS011;51140;45.340;5.980;2024-03-17T05:46:04;11.15;;;4.63;;
64712;SDS011;51140;45.340;5.980;2024-03-17T05:48:31;11.05;;;4.22;;
64712;SDS011;51140;45.340;5.980;2024-03-17T05:50:57;10.40;;;4.45;;
64712;SDS011;51140;45.340;5.980;2024-03-17T05:53:23;9.07;;;3.53;;
64712;SDS011;51140;45.340;5.980;2024-03-17T05:55:51;6.00;;;2.35;;
64712;SDS011;51140;45.340;5.980;2024-03-17T05:58:16;7.97;;;3.50;;
64712;SDS011;51140;45.340;5.980;2024-03-17T06:00:42;9.40;;;3.20;;
64712;SDS011;51140;45.340;5.980;2024-03-17T06:03:09;8.95;;;3.30;;
64712;SDS011;51140;45.340;5.980;2024-03-17T06:05:38;7.15;;;3.25;;
64712;SDS011;51140;45.340;5.980;2024-03-17T06:08:08;9.20;;;3.00;;
64712;SDS011;51140;45.340;5.980;2024-03-17T06:10:34;9.07;;;3.00;;
64712;SDS011;51140;45.340;5.980;2024-03-17T06:13:01;6.88;;;2.50;;
64712;SDS011;51140;45.340;5.980;2024-03-17T06:15:27;9.07;;;2.08;;
64712;SDS011;51140;45.340;5.980;2024-03-17T06:17:54;7.30;;;1.60;;
64712;SDS011;51140;45.340;5.980;2024-03-17T06:20:28;5.63;;;1.63;;
64712;SDS011;51140;45.340;5.980;2024-03-17T06:22:54;7.03;;;2.00;;
64712;SDS011;51140;45.340;5.980;2024-03-17T06:25:20;7.45;;;2.75;;
64712;SDS011;51140;45.340;5.980;2024-03-17T06:27:48;10.18;;;3.28;;
64712;SDS011;51140;45.340;5.980;2024-03-17T06:30:15;7.25;;;3.03;;
64712;SDS011;51140;45.340;5.980;2024-03-17T06:32:41;9.50;;;3.25;;
64712;SDS011;51140;45.340;5.980;2024-03-17T06:35:07;9.48;;;2.70;;
64712;SDS011;51140;45.340;5.980;2024-03-17T06:37:33;8.15;;;2.70;;
64712;SDS011;51140;45.340;5.980;2024-03-17T06:39:58;6.72;;;2.53;;
64712;SDS011;51140;45.340;5.980;2024-03-17T06:42:24;6.65;;;2.05;;
64712;SDS011;51140;45.340;5.980;2024-03-17T06:44:49;4.70;;;1.70;;
64712;SDS011;51140;45.340;5.980;2024-03-17T06:47:14;4.40;;;1.42;;
64712;SDS011;51140;45.340;5.980;2024-03-17T06:49:40;6.72;;;2.20;;
64712;SDS011;51140;45.340;5.980;2024-03-17T06:52:05;9.65;;;2.80;;
64712;SDS011;51140;45.340;5.980;2024-03-17T06:54:30;7.32;;;2.80;;
64712;SDS011;51140;45.340;5.980;2024-03-17T06:56:58;8.45;;;2.78;;
64712;SDS011;51140;45.340;5.980;2024-03-17T06:59:23;13.07;;;4.78;;
64712;SDS011;51140;45.340;5.980;2024-03-17T07:01:49;12.60;;;3.83;;
64712;SDS011;51140;45.340;5.980;2024-03-17T07:04:15;8.63;;;2.90;;
64712;SDS011;51140;45.340;5.980;2024-03-17T07:06:41;8.35;;;3.00;;
64712;SDS011;51140;45.340;5.980;2024-03-17T07:09:07;6.43;;;2.80;;
64712;SDS011;51140;45.340;5.980;2024-03-17T07:11:33;9.95;;;3.08;;
64712;SDS011;51140;45.340;5.980;2024-03-17T07:13:59;11.40;;;4.80;;
64712;SDS011;51140;45.340;5.980;2024-03-17T07:16:24;14.35;;;5.10;;
64712;SDS011;51140;45.340;5.980;2024-03-17T07:18:50;15.10;;;6.00;;
64712;SDS011;51140;45.340;5.980;2024-03-17T07:21:17;11.88;;;5.32;;
64712;SDS011;51140;45.340;5.980;2024-03-17T07:23:43;15.68;;;5.22;;
64712;SDS011;51140;45.340;5.980;2024-03-17T07:26:09;12.43;;;5.13;;
64712;SDS011;51140;45.340;5.980;2024-03-17T07:28:34;11.02;;;4.82;;
64712;SDS011;51140;45.340;5.980;2024-03-17T07:31:00;13.82;;;6.07;;
64712;SDS011;51140;45.340;5.980;2024-03-17T07:33:26;12.68;;;5.35;;
64712;SDS011;51140;45.340;5.980;2024-03-17T07:38:17;12.25;;;5.20;;
64712;SDS011;51140;45.340;5.980;2024-03-17T07:40:43;14.88;;;6.07;;
64712;SDS011;51140;45.340;5.980;2024-03-17T07:43:09;13.57;;;5.80;;
64712;SDS011;51140;45.340;5.980;2024-03-17T07:45:35;13.65;;;5.57;;
64712;SDS011;51140;45.340;5.980;2024-03-17T07:48:00;11.63;;;5.20;;
64712;SDS011;51140;45.340;5.980;2024-03-17T07:50:25;9.57;;;4.53;;
64712;SDS011;51140;45.340;5.980;2024-03-17T07:52:51;9.65;;;4.28;;
64712;SDS011;51140;45.340;5.980;2024-03-17T07:55:16;11.68;;;4.63;;
64712;SDS011;51140;45.340;5.980;2024-03-17T07:57:42;12.13;;;4.47;;
64712;SDS011;51140;45.340;5.980;2024-03-17T08:00:07;13.32;;;5.15;;
64712;SDS011;51140;45.340;5.980;2024-03-17T08:02:47;12.50;;;5.30;;
64712;SDS011;51140;45.340;5.980;2024-03-17T08:05:13;14.32;;;5.70;;
64712;SDS011;51140;45.340;5.980;2024-03-17T08:07:38;13.35;;;5.68;;
64712;SDS011;51140;45.340;5.980;2024-03-17T08:10:05;10.55;;;4.65;;
64712;SDS011;51140;45.340;5.980;2024-03-17T08:12:30;11.55;;;5.05;;
64712;SDS011;51140;45.340;5.980;2024-03-17T08:14:56;12.52;;;4.50;;
64712;SDS011;51140;45.340;5.980;2024-03-17T08:17:21;8.55;;;3.90;;
64712;SDS011;51140;45.340;5.980;2024-03-17T08:19:47;8.90;;;3.72;;
64712;SDS011;51140;45.340;5.980;2024-03-17T08:22:13;8.52;;;3.30;;
64712;SDS011;51140;45.340;5.980;2024-03-17T08:24:38;8.90;;;3.45;;
64712;SDS011;51140;45.340;5.980;2024-03-17T08:27:04;6.72;;;3.13;;
64712;SDS011;51140;45.340;5.980;2024-03-17T08:29:29;8.73;;;3.35;;
64712;SDS011;51140;45.340;5.980;2024-03-17T08:31:55;8.98;;;3.67;;
64712;SDS011;51140;45.340;5.980;2024-03-17T08:34:20;10.60;;;3.95;;
64712;SDS011;51140;45.340;5.980;2024-03-17T08:36:46;9.27;;;3.80;;
64712;SDS011;51140;45.340;5.980;2024-03-17T08:39:11;10.95;;;3.50;;
64712;SDS011;51140;45.340;5.980;2024-03-17T08:41:37;10.27;;;3.72;;
64712;SDS011;51140;45.340;5.980;2024-03-17T08:44:02;8.35;;;3.90;;
64712;SDS011;51140;45.340;5.980;2024-03-17T08:46:27;11.02;;;4.88;;
64712;SDS011;51140;45.340;5.980;2024-03-17T08:48:53;12.40;;;5.65;;
64712;SDS011;51140;45.340;5.980;2024-03-17T08:51:18;16.60;;;7.85;;
64712;SDS011;51140;45.340;5.980;2024-03-17T08:53:44;21.38;;;7.43;;
64712;SDS011;51140;45.340;5.980;2024-03-17T08:56:09;13.50;;;5.60;;
64712;SDS011;51140;45.340;5.980;2024-03-17T08:58:35;11.40;;;4.72;;
64712;SDS011;51140;45.340;5.980;2024-03-17T09:01:07;10.52;;;3.78;;
64712;SDS011;51140;45.340;5.980;2024-03-17T09:03:36;9.23;;;3.63;;
64712;SDS011;51140;45.340;5.980;2024-03-17T09:06:01;11.65;;;3.20;;
64712;SDS011;51140;45.340;5.980;2024-03-17T09:08:27;10.18;;;4.13;;
64712;SDS011;51140;45.340;5.980;2024-03-17T09:10:53;9.55;;;3.70;;
64712;SDS011;51140;45.340;5.980;2024-03-17T09:13:20;8.73;;;3.42;;
64712;SDS011;51140;45.340;5.980;2024-03-17T09:16:10;8.75;;;3.38;;
64712;SDS011;51140;45.340;5.980;2024-03-17T09:18:36;8.93;;;3.45;;
64712;SDS011;51140;45.340;5.980;2024-03-17T09:21:06;8.25;;;3.63;;
64712;SDS011;51140;45.340;5.980;2024-03-17T09:23:33;7.13;;;3.10;;
64712;SDS011;51140;45.340;5.980;2024-03-17T09:26:03;7.80;;;3.30;;
64712;SDS011;51140;45.340;5.980;2024-03-17T09:28:30;9.77;;;3.58;;
64712;SDS011;51140;45.340;5.980;2024-03-17T09:30:57;9.18;;;3.40;;
64712;SDS011;51140;45.340;5.980;2024-03-17T09:33:23;9.23;;;3.60;;
64712;SDS011;51140;45.340;5.980;2024-03-17T09:35:54;11.18;;;4.45;;
64712;SDS011;51140;45.340;5.980;2024-03-17T09:38:25;11.55;;;4.80;;
64712;SDS011;51140;45.340;5.980;2024-03-17T09:40:51;11.93;;;5.90;;
64712;SDS011;51140;45.340;5.980;2024-03-17T09:43:22;12.45;;;5.43;;
64712;SDS011;51140;45.340;5.980;2024-03-17T09:45:56;10.52;;;5.38;;
64712;SDS011;51140;45.340;5.980;2024-03-17T09:48:25;17.88;;;11.82;;
64712;SDS011;51140;45.340;5.980;2024-03-17T09:50:53;16.08;;;6.32;;
64712;SDS011;51140;45.340;5.980;2024-03-17T09:53:24;11.88;;;5.38;;
64712;SDS011;51140;45.340;5.980;2024-03-17T09:58:28;10.15;;;4.53;;
64712;SDS011;51140;45.340;5.980;2024-03-17T10:00:53;7.20;;;2.85;;
64712;SDS011;51140;45.340;5.980;2024-03-17T10:06:24;8.88;;;3.20;;
64712;SDS011;51140;45.340;5.980;2024-03-17T10:08:53;8.60;;;3.20;;
64712;SDS011;51140;45.340;5.980;2024-03-17T10:11:41;7.30;;;3.20;;
64712;SDS011;51140;45.340;5.980;2024-03-17T10:14:07;6.65;;;2.80;;
64712;SDS011;51140;45.340;5.980;2024-03-17T10:16:33;9.20;;;3.20;;
64712;SDS011;51140;45.340;5.980;2024-03-17T10:19:10;9.90;;;3.13;;
64712;SDS011;51140;45.340;5.980;2024-03-17T10:21:41;8.80;;;2.67;;
64712;SDS011;51140;45.340;5.980;2024-03-17T10:24:11;9.50;;;3.97;;
64712;SDS011;51140;45.340;5.980;2024-03-17T10:26:56;9.38;;;3.78;;
64712;SDS011;51140;45.340;5.980;2024-03-17T10:29:24;8.05;;;3.65;;
64712;SDS011;51140;45.340;5.980;2024-03-17T10:31:55;9.23;;;3.70;;
64712;SDS011;51140;45.340;5.980;2024-03-17T10:34:44;12.10;;;4.18;;
64712;SDS011;51140;45.340;5.980;2024-03-17T10:37:16;10.55;;;4.72;;
64712;SDS011;51140;45.340;5.980;2024-03-17T10:39:50;14.18;;;7.65;;
64712;SDS011;51140;45.340;5.980;2024-03-17T10:42:24;25.15;;;19.50;;
64712;SDS011;51140;45.340;5.980;2024-03-17T10:44:53;20.52;;;16.42;;
64712;SDS011;51140;45.340;5.980;2024-03-17T10:47:21;8.80;;;3.47;;
64712;SDS011;51140;45.340;5.980;2024-03-17T10:49:49;8.77;;;3.20;;
64712;SDS011;51140;45.340;5.980;2024-03-17T10:52:17;10.68;;;3.47;;
64712;SDS011;51140;45.340;5.980;2024-03-17T10:54:50;9.23;;;5.13;;
64712;SDS011;51140;45.340;5.980;2024-03-17T10:57:32;7.47;;;2.88;;
64712;SDS011;51140;45.340;5.980;2024-03-17T11:00:13;7.60;;;3.10;;
64712;SDS011;51140;45.340;5.980;2024-03-17T11:02:42;7.07;;;2.58;;
64712;SDS011;51140;45.340;5.980;2024-03-17T11:05:16;7.32;;;2.55;;
64712;SDS011;51140;45.340;5.980;2024-03-17T11:07:45;7.47;;;2.67;;
64712;SDS011;51140;45.340;5.980;2024-03-17T11:10:22;9.15;;;2.97;;
64712;SDS011;51140;45.340;5.980;2024-03-17T11:12:55;6.35;;;2.03;;
64712;SDS011;51140;45.340;5.980;2024-03-17T11:20:37;5.82;;;2.22;;
64712;SDS011;51140;45.340;5.980;2024-03-17T11:23:04;7.63;;;2.50;;
64712;SDS011;51140;45.340;5.980;2024-03-17T11:28:01;7.82;;;2.20;;
64712;SDS011;51140;45.340;5.980;2024-03-17T11:30:43;7.05;;;2.08;;
64712;SDS011;51140;45.340;5.980;2024-03-17T11:41:48;5.85;;;1.85;;
64712;SDS011;51140;45.340;5.980;2024-03-17T11:51:45;4.63;;;1.50;;
64712;SDS011;51140;45.340;5.980;2024-03-17T11:54:18;4.35;;;1.40;;
64712;SDS011;51140;45.340;5.980;2024-03-17T11:56:48;5.75;;;1.38;;
64712;SDS011;51140;45.340;5.980;2024-03-17T11:59:14;4.43;;;1.20;;
64712;SDS011;51140;45.340;5.980;2024-03-17T12:01:43;4.82;;;1.20;;
64712;SDS011;51140;45.340;5.980;2024-03-17T12:04:09;5.10;;;1.20;;
64712;SDS011;51140;45.340;5.980;2024-03-17T12:06:35;4.07;;;1.13;;
64712;SDS011;51140;45.340;5.980;2024-03-17T12:09:08;4.15;;;1.15;;
64712;SDS011;51140;45.340;5.980;2024-03-17T12:11:45;4.38;;;1.35;;
64712;SDS011;51140;45.340;5.980;2024-03-17T12:14:34;3.65;;;1.25;;
64712;SDS011;51140;45.340;5.980;2024-03-17T12:17:01;2.83;;;1.08;;
64712;SDS011;51140;45.340;5.980;2024-03-17T12:19:30;4.13;;;1.33;;
64712;SDS011;51140;45.340;5.980;2024-03-17T12:21:59;3.40;;;1.25;;
64712;SDS011;51140;45.340;5.980;2024-03-17T12:24:25;5.53;;;1.30;;
64712;SDS011;51140;45.340;5.980;2024-03-17T12:26:55;4.40;;;1.40;;
64712;SDS011;51140;45.340;5.980;2024-03-17T12:31:51;4.43;;;1.30;;
64712;SDS011;51140;45.340;5.980;2024-03-17T12:34:18;3.58;;;1.00;;
64712;SDS011;51140;45.340;5.980;2024-03-17T12:36:44;5.13;;;1.30;;
64712;SDS011;51140;45.340;5.980;2024-03-17T12:39:17;3.97;;;1.00;;
64712;SDS011;51140;45.340;5.980;2024-03-17T12:44:27;3.50;;;1.15;;
64712;SDS011;51140;45.340;5.980;2024-03-17T12:46:56;4.20;;;1.30;;
64712;SDS011;51140;45.340;5.980;2024-03-17T12:49:26;3.92;;;1.38;;
64712;SDS011;51140;45.340;5.980;2024-03-17T12:51:53;5.28;;;1.10;;
64712;SDS011;51140;45.340;5.980;2024-03-17T12:54:20;2.38;;;1.10;;
64712;SDS011;51140;45.340;5.980;2024-03-17T12:56:48;5.97;;;1.17;;
64712;SDS011;51140;45.340;5.980;2024-03-17T12:59:39;6.60;;;1.23;;
64712;SDS011;51140;45.340;5.980;2024-03-17T13:02:44;4.20;;;1.52;;
64712;SDS011;51140;45.340;5.980;2024-03-17T13:05:14;6.93;;;2.70;;
64712;SDS011;51140;45.340;5.980;2024-03-17T13:07:41;5.45;;;2.17;;
64712;SDS011;51140;45.340;5.980;2024-03-17T13:10:06;5.25;;;1.67;;
64712;SDS011;51140;45.340;5.980;2024-03-17T13:12:35;5.07;;;1.70;;
64712;SDS011;51140;45.340;5.980;2024-03-17T13:15:01;6.03;;;1.80;;
64712;SDS011;51140;45.340;5.980;2024-03-17T13:17:26;4.30;;;1.45;;
64712;SDS011;51140;45.340;5.980;2024-03-17T13:19:54;4.78;;;1.20;;
64712;SDS011;51140;45.340;5.980;2024-03-17T13:22:20;2.67;;;1.15;;
64712;SDS011;51140;45.340;5.980;2024-03-17T13:24:45;4.00;;;1.10;;
64712;SDS011;51140;45.340;5.980;2024-03-17T13:27:12;4.82;;;1.77;;
64712;SDS011;51140;45.340;5.980;2024-03-17T13:29:39;6.10;;;1.70;;
64712;SDS011;51140;45.340;5.980;2024-03-17T13:32:09;4.88;;;1.73;;
64712;SDS011;51140;45.340;5.980;2024-03-17T13:34:34;6.70;;;1.50;;
64712;SDS011;51140;45.340;5.980;2024-03-17T13:36:59;5.57;;;1.50;;
64712;SDS011;51140;45.340;5.980;2024-03-17T13:39:30;7.70;;;1.52;;
64712;SDS011;51140;45.340;5.980;2024-03-17T13:41:59;2.83;;;1.10;;
64712;SDS011;51140;45.340;5.980;2024-03-17T13:44:29;2.83;;;0.90;;
64712;SDS011;51140;45.340;5.980;2024-03-17T13:46:55;3.95;;;1.17;;
64712;SDS011;51140;45.340;5.980;2024-03-17T13:49:22;3.65;;;1.15;;
64712;SDS011;51140;45.340;5.980;2024-03-17T13:51:47;3.28;;;1.05;;
64712;SDS011;51140;45.340;5.980;2024-03-17T13:54:13;3.45;;;1.10;;
64712;SDS011;51140;45.340;5.980;2024-03-17T13:56:38;7.18;;;1.45;;
64712;SDS011;51140;45.340;5.980;2024-03-17T13:59:03;3.28;;;1.00;;
64712;SDS011;51140;45.340;5.980;2024-03-17T14:01:29;4.40;;;1.15;;
64712;SDS011;51140;45.340;5.980;2024-03-17T14:03:54;4.78;;;1.00;;
64712;SDS011;51140;45.340;5.980;2024-03-17T14:06:20;3.20;;;1.10;;
64712;SDS011;51140;45.340;5.980;2024-03-17T14:08:45;2.65;;;1.00;;
64712;SDS011;51140;45.340;5.980;2024-03-17T14:11:10;3.63;;;1.20;;
64712;SDS011;51140;45.340;5.980;2024-03-17T14:13:36;5.82;;;1.38;;
64712;SDS011;51140;45.340;5.980;2024-03-17T14:16:01;4.15;;;1.10;;
64712;SDS011;51140;45.340;5.980;2024-03-17T14:18:26;4.88;;;1.20;;
64712;SDS011;51140;45.340;5.980;2024-03-17T14:20:52;6.57;;;1.70;;
64712;SDS011;51140;45.340;5.980;2024-03-17T14:23:17;4.80;;;1.20;;
64712;SDS011;51140;45.340;5.980;2024-03-17T14:25:42;2.97;;;1.00;;
64712;SDS011;51140;45.340;5.980;2024-03-17T14:28:08;3.80;;;1.08;;
64712;SDS011;51140;45.340;5.980;2024-03-17T14:30:34;4.45;;;1.33;;
64712;SDS011;51140;45.340;5.980;2024-03-17T14:32:59;4.07;;;1.15;;
64712;SDS011;51140;45.340;5.980;2024-03-17T14:35:25;4.32;;;1.40;;
64712;SDS011;51140;45.340;5.980;2024-03-17T14:37:52;3.85;;;1.42;;
64712;SDS011;51140;45.340;5.980;2024-03-17T14:40:18;4.22;;;1.08;;
64712;SDS011;51140;45.340;5.980;2024-03-17T14:42:49;5.57;;;1.50;;
64712;SDS011;51140;45.340;5.980;2024-03-17T14:45:18;3.92;;;1.40;;
64712;SDS011;51140;45.340;5.980;2024-03-17T14:47:44;4.97;;;1.30;;
64712;SDS011;51140;45.340;5.980;2024-03-17T14:50:10;4.60;;;1.40;;
64712;SDS011;51140;45.340;5.980;2024-03-17T14:52:39;2.97;;;1.00;;
64712;SDS011;51140;45.340;5.980;2024-03-17T14:55:07;3.25;;;1.27;;
64712;SDS011;51140;45.340;5.980;2024-03-17T14:57:34;4.00;;;1.20;;
64712;SDS011;51140;45.340;5.980;2024-03-17T15:00:00;4.63;;;1.58;;
64712;SDS011;51140;45.340;5.980;2024-03-17T15:02:26;3.80;;;1.25;;
64712;SDS011;51140;45.340;5.980;2024-03-17T15:04:51;4.72;;;1.10;;
64712;SDS011;51140;45.340;5.980;2024-03-17T15:07:17;3.05;;;1.00;;
64712;SDS011;51140;45.340;5.980;2024-03-17T15:09:43;5.43;;;1.50;;
64712;SDS011;51140;45.340;5.980;2024-03-17T15:12:08;4.20;;;1.40;;
64712;SDS011;51140;45.340;5.980;2024-03-17T15:14:34;4.88;;;1.40;;
64712;SDS011;51140;45.340;5.980;2024-03-17T15:17:02;4.60;;;1.63;;
64712;SDS011;51140;45.340;5.980;2024-03-17T15:19:27;5.15;;;1.55;;
64712;SDS011;51140;45.340;5.980;2024-03-17T15:21:53;4.82;;;1.85;;
64712;SDS011;51140;45.340;5.980;2024-03-17T15:24:18;4.82;;;1.77;;